Time;durP1;ratioP1;P1;durP2;ratioP2;P2;SDS_P1;SDS_P2;PMS_P1;PMS_P2;Temp;Humidity;BMP_temperature;BMP_pressure;BME280_temperature;BME280_humidity;BME280_pressure;Samples;Min_cycle;Max_cycle;Signal;HPM_P1;HPM_P2
2021/10/04 00:05:34;;;;;;;;;;;;;;;;;;;;;
2021/10/04 00:23:48;;;;;;;;;;;;;;;;;;;;;
2021/10/04 00:31:25;;;;;;;;;;;;;;;;;;;;;
2021/10/04 00:34:14;;;;;;;7.97;1.38;;;;;;;11.76;92.51;101179.28;5880459;24;20026;-82
2021/10/04 00:37:22;;;;;;;1.70;0.90;;;;;;;11.72;92.79;101188.00;5874940;24;20053;-84
2021/10/04 00:39:56;;;;;;;7.78;0.88;;;;;;;11.74;92.73;101191.53;5873576;24;20452;-81
2021/10/04 00:45:43;;;;;;;4.00;0.85;;;;;;;11.71;93.25;101195.91;6025592;23;20026;-82
2021/10/04 00:52:18;;;;;;;;;;;;;;;;;;;;;
2021/10/04 00:55:31;;;;;;;9.68;1.00;;;;;;;11.65;94.25;101207.19;6240421;23;20074;-82
2021/10/04 00:58:13;;;;;;;5.00;1.10;;;;;;;11.66;94.30;101211.63;6245847;23;20048;-82
2021/10/04 01:01:28;;;;;;;3.70;0.95;;;;;;;11.73;93.72;101195.03;6243601;23;20010;-81
2021/10/04 01:04:27;;;;;;;;;;;;;;;;;;;;;
2021/10/04 01:07:15;;;;;;;4.90;1.08;;;;;;;11.80;93.40;101210.13;6219648;23;20076;-82
2021/10/04 01:10:08;;;;;;;;;;;;;;;;;;;;;
2021/10/04 01:13:24;;;;;;;;;;;;;;;;;;;;;
2021/10/04 01:16:40;;;;;;;;;;;;;;;;;;;;;
2021/10/04 01:19:21;;;;;;;5.90;1.17;;;;;;;11.74;93.71;101228.47;6240472;23;20087;-81
2021/10/04 01:22:32;;;;;;;9.55;1.30;;;;;;;11.72;93.93;101240.75;6241500;23;20035;-82
2021/10/04 01:25:18;;;;;;;4.30;1.10;;;;;;;11.74;93.78;101232.84;6224028;23;20024;-82
2021/10/04 01:28:32;;;;;;;6.63;1.13;;;;;;;11.75;93.59;101240.78;6243226;23;20070;-82
2021/10/04 01:34:38;;;;;;;2.47;0.90;;;;;;;11.73;93.72;101252.16;6222466;23;20316;-82
2021/10/04 01:37:36;;;;;;;;;;;;;;;;;;;;;
2021/10/04 01:40:21;;;;;;;5.90;1.05;;;;;;;11.71;93.81;101248.63;6239365;23;20083;-81
2021/10/04 01:45:55;;;;;;;8.93;1.52;;;;;;;11.67;93.86;101252.94;6229235;23;20035;-82
2021/10/04 01:49:02;;;;;;;5.63;1.15;;;;;;;11.68;93.86;101267.00;6244472;23;20004;-81
2021/10/04 01:51:56;;;;;;;11.27;1.25;;;;;;;11.66;93.92;101261.69;6244871;23;20028;-84
2021/10/04 01:55:01;;;;;;;;;;;;;;;;;;;;;
2021/10/04 02:05:01;;;;;;;;;;;;;;;;;;;;;
2021/10/04 02:14:55;;;;;;;10.90;1.30;;;;;;;11.66;93.92;101245.00;6233125;23;20308;-82
2021/10/04 02:17:34;;;;;;;;;;;;;;;;;;;;;
2021/10/04 02:20:52;;;;;;;;;;;;;;;;;;;;;
2021/10/04 02:24:18;;;;;;;;;;;;;;;;;;;;;
2021/10/04 02:27:31;;;;;;;8.88;1.20;;;;;;;11.54;94.93;101235.13;6241451;23;20071;-82
2021/10/04 02:33:49;;;;;;;4.95;1.15;;;;;;;11.55;94.76;101226.34;6208087;23;20107;-82
2021/10/04 02:40:03;;;;;;;7.70;1.40;;;;;;;11.50;95.41;101222.75;6090804;23;20350;-83
2021/10/04 02:43:42;;;;;;;;;;;;;;;;;;;;;
2021/10/04 02:50:50;;;;;;;;;;;;;;;;;;;;;
2021/10/04 03:01:11;;;;;;;4.78;1.10;;;;;;;11.33;95.94;101220.69;6131967;23;20008;-83
2021/10/04 03:04:25;;;;;;;;;;;;;;;;;;;;;
2021/10/04 03:07:47;;;;;;;;;;;;;;;;;;;;;
2021/10/04 03:17:19;;;;;;;;;;;;;;;;;;;;;
2021/10/04 03:30:40;;;;;;;9.50;1.15;;;;;;;11.17;96.93;101242.31;6214923;23;20008;-81
2021/10/04 03:33:57;;;;;;;;;;;;;;;;;;;;;
2021/10/04 03:36:40;;;;;;;6.75;1.95;;;;;;;11.09;97.17;101240.38;6237683;23;20015;-82
2021/10/04 03:39:58;;;;;;;;;;;;;;;;;;;;;
2021/10/04 03:43:14;;;;;;;;;;;;;;;;;;;;;
2021/10/04 03:50:20;;;;;;;;;;;;;;;;;;;;;
2021/10/04 03:53:45;;;;;;;;;;;;;;;;;;;;;
2021/10/04 03:57:23;;;;;;;;;;;;;;;;;;;;;
2021/10/04 04:00:34;;;;;;;7.00;1.48;;;;;;;11.01;97.75;101284.09;6145482;23;20019;-82
2021/10/04 04:18:04;;;;;;;;;;;;;;;;;;;;;
2021/10/04 04:38:46;;;;;;;;;;;;;;;;;;;;;
2021/10/04 05:03:13;;;;;;;;;;;;;;;;;;;;;
2021/10/04 05:30:32;;;;;;;11.27;2.22;;;;;;;9.90;100.00;101369.06;6026355;23;20312;-83
2021/10/04 05:34:09;;;;;;;;;;;;;;;;;;;;;
2021/10/04 05:37:19;;;;;;;;;;;;;;;;;;;;;
2021/10/04 05:43:51;;;;;;;7.65;2.35;;;;;;;9.89;100.00;101371.63;6036352;23;20169;-83
2021/10/04 05:46:25;;;;;;;18.48;3.00;;;;;;;9.88;100.00;101373.38;6161397;23;20012;-83
2021/10/04 05:49:30;;;;;;;10.57;2.73;;;;;;;9.87;100.00;101394.38;6196149;23;20427;-83
2021/10/04 05:52:21;;;;;;;17.63;2.95;;;;;;;9.89;100.00;101387.41;6244151;23;20019;-83
2021/10/04 05:55:08;;;;;;;9.88;2.35;;;;;;;9.91;100.00;101396.22;6242174;23;20501;-83
2021/10/04 05:57:54;;;;;;;9.40;2.80;;;;;;;9.91;100.00;101396.22;6233282;23;20407;-86
2021/10/04 06:00:20;;;;;;;14.00;3.25;;;;;;;9.92;100.00;101398.03;6188042;23;20091;-87
2021/10/04 06:02:45;;;;;;;14.55;3.15;;;;;;;9.93;100.00;101407.69;6211935;23;20095;-86
2021/10/04 06:05:11;;;;;;;11.00;2.67;;;;;;;9.92;100.00;101404.16;6214315;23;20024;-82
2021/10/04 06:07:37;;;;;;;13.73;2.92;;;;;;;9.92;100.00;101401.53;6216559;23;20083;-82
2021/10/04 06:16:55;;;;;;;7.25;2.80;;;;;;;9.92;100.00;101419.06;6151080;23;19908;-86
2021/10/04 06:19:40;;;;;;;8.27;2.90;;;;;;;9.90;100.00;101416.38;6185847;23;20125;-88
2021/10/04 06:22:06;;;;;;;14.25;3.65;;;;;;;9.95;100.00;101420.00;6217074;23;20012;-82
2021/10/04 06:24:53;;;;;;;18.35;3.88;;;;;;;9.96;100.00;101421.81;6208810;23;20071;-88
2021/10/04 06:27:18;;;;;;;17.10;2.90;;;;;;;9.95;100.00;101427.03;6214362;23;20020;-82
2021/10/04 06:30:15;;;;;;;;;;;;;;;;;;;;;
2021/10/04 06:32:54;;;;;;;;;;;;;;;;;;;;;
2021/10/04 06:35:41;;;;;;;15.75;2.75;;;;;;;9.90;100.00;101428.63;6215984;23;20327;-84
2021/10/04 06:38:07;;;;;;;9.35;2.97;;;;;;;9.87;100.00;101429.41;6213202;23;20008;-82
2021/10/04 06:40:43;;;;;;;8.55;2.40;;;;;;;9.90;100.00;101423.34;6212643;23;20008;-81
2021/10/04 06:43:08;;;;;;;9.30;2.55;;;;;;;9.92;100.00;101427.81;6187973;23;20008;-82
2021/10/04 06:45:39;;;;;;;9.98;2.65;;;;;;;9.90;100.00;101432.16;6212765;23;20078;-85
2021/10/04 06:48:05;;;;;;;10.15;3.10;;;;;;;9.93;100.00;101439.25;6213174;23;20102;-89
2021/10/04 06:50:30;;;;;;;9.63;3.28;;;;;;;10.01;100.00;101436.81;6214531;23;20009;-87
2021/10/04 06:52:56;;;;;;;15.60;3.58;;;;;;;10.06;100.00;101429.94;6214439;23;20005;-84
2021/10/04 06:55:21;;;;;;;22.98;3.38;;;;;;;10.10;100.00;101430.06;6187392;23;20016;-81
2021/10/04 06:57:47;;;;;;;13.60;3.97;;;;;;;10.13;100.00;101426.63;6226871;23;20022;-85
2021/10/04 07:00:34;;;;;;;14.32;3.35;;;;;;;10.20;100.00;101440.84;6245783;23;20333;-80
2021/10/04 07:03:02;;;;;;;9.50;3.47;;;;;;;10.25;100.00;101439.25;6240528;23;20377;-82
2021/10/04 07:05:28;;;;;;;13.27;3.70;;;;;;;10.30;100.00;101433.25;6219047;23;20012;-82
2021/10/04 07:07:56;;;;;;;7.20;3.65;;;;;;;10.35;100.00;101436.06;6243552;23;20083;-79
2021/10/04 07:10:41;;;;;;;7.40;2.97;;;;;;;10.39;100.00;101437.00;6244889;23;20426;-84
2021/10/04 07:13:07;;;;;;;16.40;3.00;;;;;;;10.48;100.00;101431.13;6221971;23;20016;-84
2021/10/04 07:15:49;;;;;;;17.17;3.20;;;;;;;10.52;99.93;101438.25;6246780;23;20084;-88
2021/10/04 07:21:17;;;;;;;5.72;3.08;;;;;;;10.65;99.57;101450.88;6227560;23;20089;-84
2021/10/04 07:24:26;;;;;;;18.35;3.05;;;;;;;10.70;99.50;101449.25;6241590;23;20000;-84
2021/10/04 07:27:03;;;;;;;;;;;;;;;;;;;;;
2021/10/04 07:29:50;;;;;;;11.93;2.65;;;;;;;10.80;98.23;101456.53;6233143;23;20083;-83
2021/10/04 07:32:47;;;;;;;10.77;2.58;;;;;;;10.81;97.61;101446.88;6237144;23;20019;-84
2021/10/04 07:35:22;;;;;;;10.32;2.70;;;;;;;10.85;97.91;101447.84;6240075;23;20004;-84
2021/10/04 07:38:15;;;;;;;6.63;2.40;;;;;;;10.89;97.96;101454.97;6241682;23;20012;-83
2021/10/04 07:40:43;;;;;;;5.22;2.40;;;;;;;10.93;97.59;101452.47;6241377;23;20004;-86
2021/10/04 07:43:31;;;;;;;6.10;2.20;;;;;;;11.01;97.33;101465.81;6240214;23;20110;-83
2021/10/04 07:46:16;;;;;;;4.38;2.30;;;;;;;11.05;96.31;101457.13;6242703;23;20473;-85
2021/10/04 07:49:05;;;;;;;8.30;2.58;;;;;;;11.08;96.25;101457.22;6235027;23;20468;-82
2021/10/04 07:51:39;;;;;;;6.35;2.35;;;;;;;11.14;96.16;101461.75;6239841;23;20012;-83
2021/10/04 07:54:35;;;;;;;5.88;2.20;;;;;;;11.20;96.05;101464.50;6241339;23;20008;-81
2021/10/04 07:57:05;;;;;;;6.60;1.88;;;;;;;11.24;95.52;101453.19;6240720;23;20105;-87
2021/10/04 07:59:35;;;;;;;4.13;1.88;;;;;;;11.31;95.54;101451.59;6236449;23;20012;-86
2021/10/04 08:02:07;;;;;;;3.85;1.95;;;;;;;11.35;95.23;101461.34;6234522;23;19996;-81
2021/10/04 08:04:50;;;;;;;7.75;2.28;;;;;;;11.40;95.29;101456.19;6238977;23;20000;-88
2021/10/04 08:07:18;;;;;;;5.70;1.63;;;;;;;11.46;94.09;101453.69;6238801;23;20435;-86
2021/10/04 08:10:36;;;;;;;;;;;;;;;;;;;;;
2021/10/04 08:13:11;;;;;;;5.57;1.90;;;;;;;11.58;93.65;101458.34;6223853;23;20159;-85
2021/10/04 08:16:05;;;;;;;8.60;2.60;;;;;;;11.64;93.93;101461.16;6244715;23;20016;-86
2021/10/04 08:18:51;;;;;;;11.47;2.10;;;;;;;11.69;93.05;101462.09;6244535;23;20377;-86
2021/10/04 08:21:24;;;;;;;7.15;2.00;;;;;;;11.74;92.18;101444.66;6216333;23;20019;-88
2021/10/04 08:23:50;;;;;;;4.47;1.50;;;;;;;11.81;91.42;101457.13;6244785;23;20331;-81
2021/10/04 08:26:17;;;;;;;4.93;2.13;;;;;;;11.89;92.06;101459.03;6217327;23;20434;-86
2021/10/04 08:29:07;;;;;;;6.80;2.80;;;;;;;11.96;92.98;101468.88;6218134;23;20474;-82
2021/10/04 08:31:43;;;;;;;9.18;2.22;;;;;;;12.03;90.97;101464.63;6245186;23;20008;-83
2021/10/04 08:34:30;;;;;;;5.90;1.80;;;;;;;12.11;90.31;101463.94;6242961;23;20009;-81
2021/10/04 08:36:56;;;;;;;9.75;2.15;;;;;;;12.17;90.37;101457.88;6243508;23;20011;-88
2021/10/04 08:39:25;;;;;;;10.75;2.20;;;;;;;12.22;90.09;101452.69;6244946;23;20008;-87
2021/10/04 08:41:56;;;;;;;7.88;2.35;;;;;;;12.29;89.49;101454.59;6216640;23;20099;-84
2021/10/04 08:44:26;;;;;;;11.27;2.45;;;;;;;12.36;89.80;101448.56;6242212;23;20071;-83
2021/10/04 08:47:03;;;;;;;14.57;2.60;;;;;;;12.42;89.26;101438.09;6238294;23;20335;-91
2021/10/04 08:49:33;;;;;;;7.93;2.28;;;;;;;12.45;89.24;101438.19;6239676;23;20333;-83
2021/10/04 08:51:59;;;;;;;9.90;2.75;;;;;;;12.51;88.80;101444.41;6243693;23;20004;-84
2021/10/04 08:54:43;;;;;;;10.38;2.58;;;;;;;12.59;88.33;101438.44;6242771;23;20024;-85
2021/10/04 08:57:08;;;;;;;7.27;1.93;;;;;;;12.66;87.86;101450.00;6245534;23;20043;-85
2021/10/04 08:59:57;;;;;;;10.10;2.35;;;;;;;12.75;87.53;101446.59;6244469;23;20458;-81
2021/10/04 09:02:42;;;;;;;11.07;2.55;;;;;;;12.84;87.75;101449.41;6237088;23;20019;-81
2021/10/04 09:05:32;;;;;;;12.82;2.85;;;;;;;12.97;86.76;101447.88;6245229;23;20019;-80
2021/10/04 09:08:07;;;;;;;6.43;2.35;;;;;;;13.04;86.53;101452.38;6241469;23;20008;-81
2021/10/04 09:10:35;;;;;;;4.95;2.00;;;;;;;13.13;86.63;101451.63;6243920;23;20000;-84
2021/10/04 09:13:06;;;;;;;8.35;2.20;;;;;;;13.23;86.21;101460.63;6245184;23;20079;-84
2021/10/04 09:15:34;;;;;;;14.55;3.22;;;;;;;13.31;86.95;101464.25;6243042;23;20014;-87
2021/10/04 09:18:09;;;;;;;9.75;2.30;;;;;;;13.39;85.34;101453.81;6241509;23;20109;-80
2021/10/04 09:21:09;;;;;;;7.72;2.67;;;;;;;13.54;85.14;101461.09;6240323;23;20030;-85
2021/10/04 09:24:10;;;;;;;11.10;2.72;;;;;;;13.64;84.21;101466.53;6243118;23;20087;-83
2021/10/04 09:26:35;;;;;;;14.13;2.33;;;;;;;13.74;83.23;101467.56;6242434;23;20016;-81
2021/10/04 09:29:31;;;;;;;;;;;;;;;;;;;;;
2021/10/04 09:32:27;;;;;;;12.68;2.15;;;;;;;13.87;81.33;101467.72;6236984;23;20087;-82
2021/10/04 09:35:32;;;;;;;3.72;2.00;;;;;;;14.05;81.70;101467.94;6244286;23;20012;-84
2021/10/04 09:38:01;;;;;;;12.63;2.40;;;;;;;14.31;80.32;101475.28;6244769;23;20008;-84
2021/10/04 09:40:33;;;;;;;12.88;2.40;;;;;;;14.67;79.18;101477.47;6247018;23;20031;-85
2021/10/04 09:43:47;;;;;;;8.10;2.35;;;;;;;14.81;77.76;101467.03;6247027;23;20007;-79
2021/10/04 09:46:19;;;;;;;11.18;3.10;;;;;;;14.87;77.95;101462.63;6246858;23;20028;-84
2021/10/04 09:49:05;;;;;;;11.40;2.63;;;;;;;14.80;78.37;101478.50;6245823;23;20008;-83
2021/10/04 09:51:34;;;;;;;13.85;2.60;;;;;;;15.23;77.07;101459.41;6243769;23;20004;-92
2021/10/04 09:54:28;;;;;;;7.47;2.25;;;;;;;16.43;71.28;101440.53;6246907;23;20034;-85
2021/10/04 09:56:54;;;;;;;9.43;2.22;;;;;;;17.73;65.95;101445.78;6244366;23;20617;-87
2021/10/04 09:59:19;;;;;;;14.50;2.03;;;;;;;18.37;65.08;101435.75;6247103;23;20012;-82
2021/10/04 10:01:47;;;;;;;8.30;2.10;;;;;;;17.44;66.38;101436.09;6243233;23;20033;-81
2021/10/04 10:04:20;;;;;;;8.25;2.17;;;;;;;17.14;67.04;101458.31;6246624;23;20008;-82
2021/10/04 10:07:25;;;;;;;12.93;2.10;;;;;;;16.91;68.31;101471.63;6246578;23;20012;-90
2021/10/04 10:10:11;;;;;;;7.03;2.78;;;;;;;16.74;69.13;101485.75;6246348;23;20130;-85
2021/10/04 10:12:44;;;;;;;11.00;2.25;;;;;;;16.88;68.37;101466.28;6246796;23;20008;-87
2021/10/04 10:15:49;;;;;;;7.03;2.30;;;;;;;16.69;69.00;101472.44;6220675;23;20004;-82
2021/10/04 10:18:43;;;;;;;9.13;2.25;;;;;;;15.88;70.85;101480.16;6242985;23;20221;-84
2021/10/04 10:21:50;;;;;;;7.15;1.80;;;;;;;15.50;72.14;101479.03;6246182;23;20045;-85
2021/10/04 10:24:33;;;;;;;9.60;1.90;;;;;;;15.78;71.45;101482.72;6245129;23;20019;-81
2021/10/04 10:27:25;;;;;;;6.05;1.65;;;;;;;16.46;69.61;101475.06;6246018;23;20004;-86
2021/10/04 10:29:53;;;;;;;19.02;2.30;;;;;;;17.97;64.35;101465.22;6234408;23;20434;-82
2021/10/04 10:32:20;;;;;;;8.98;1.85;;;;;;;19.62;58.82;101452.47;6245906;23;20015;-82
2021/10/04 10:34:46;;;;;;;7.25;1.90;;;;;;;21.02;54.45;101449.66;6244366;23;20000;-86
2021/10/04 10:38:03;;;;;;;6.45;1.80;;;;;;;21.79;50.28;101445.56;6245328;23;20000;-80
2021/10/04 10:40:29;;;;;;;10.95;2.20;;;;;;;21.08;51.95;101440.63;6245701;23;20023;-82
2021/10/04 10:43:23;;;;;;;10.18;2.10;;;;;;;19.66;55.30;101430.16;6244260;23;20455;-84
2021/10/04 10:45:57;;;;;;;11.52;2.53;;;;;;;19.77;56.18;101433.59;6244006;23;20019;-83
2021/10/04 10:48:45;;;;;;;;;;;;;;;20.45;54.45;101440.72;6245897;23;20004;-82
2021/10/04 10:51:15;;;;;;;9.48;2.10;;;;;;;19.88;55.71;101434.34;6218979;23;19912;-81
2021/10/04 10:53:43;;;;;;;8.98;2.40;;;;;;;20.08;54.34;101440.38;6245694;23;20004;-87
2021/10/04 10:56:56;;;;;;;10.30;1.90;;;;;;;19.61;56.02;101424.88;6245328;23;20004;-85
2021/10/04 10:59:25;;;;;;;11.70;2.15;;;;;;;18.57;59.38;101437.38;6204407;23;20036;-87
2021/10/04 11:02:32;;;;;;;9.45;2.17;;;;;;;18.77;61.12;101445.22;6180975;23;20099;-79
2021/10/04 11:05:00;;;;;;;10.05;2.15;;;;;;;20.07;57.25;101439.47;6213587;23;20419;-84
2021/10/04 11:07:59;;;;;;;12.10;2.25;;;;;;;21.01;52.16;101430.03;6213767;23;20063;-86
2021/10/04 11:10:25;;;;;;;7.85;1.88;;;;;;;21.50;49.76;101411.28;6212877;23;20509;-80
2021/10/04 11:13:53;;;;;;;7.53;2.28;;;;;;;21.27;49.67;101419.75;6213343;23;20020;-80
2021/10/04 11:16:19;;;;;;;7.35;1.58;;;;;;;21.53;51.03;101433.56;6207507;23;20009;-82
2021/10/04 11:19:08;;;;;;;10.25;2.25;;;;;;;21.87;49.90;101422.16;6213668;23;20011;-78
2021/10/04 11:21:42;;;;;;;10.75;2.10;;;;;;;21.93;49.17;101425.63;6214132;23;20412;-84
2021/10/04 11:24:37;;;;;;;12.23;2.28;;;;;;;22.37;47.70;101410.38;6213708;23;20024;-84
2021/10/04 11:27:05;;;;;;;10.05;2.13;;;;;;;22.13;49.53;101411.78;6214124;23;20004;-82
2021/10/04 11:29:41;;;;;;;15.35;1.98;;;;;;;22.51;46.64;101397.50;6213676;23;20012;-84
2021/10/04 11:32:33;;;;;;;9.40;2.03;;;;;;;22.29;47.23;101396.22;6213363;23;20047;-86
2021/10/04 11:35:13;;;;;;;10.85;2.10;;;;;;;22.51;46.47;101392.13;6212348;23;20335;-87
2021/10/04 11:37:41;;;;;;;10.27;1.92;;;;;;;22.13;48.06;101399.25;6213324;23;20398;-82
2021/10/04 11:40:30;;;;;;;12.60;2.53;;;;;;;21.62;50.75;101416.41;6213709;23;20013;-82
2021/10/04 11:43:07;;;;;;;9.40;1.92;;;;;;;21.50;49.74;101411.28;6212403;23;20012;-82
2021/10/04 11:45:33;;;;;;;7.50;2.30;;;;;;;21.18;51.56;101416.34;6213126;23;20008;-85
2021/10/04 11:48:01;;;;;;;9.85;2.13;;;;;;;21.17;51.06;101409.22;6212731;23;20001;-83
2021/10/04 11:50:33;;;;;;;9.50;2.33;;;;;;;21.38;50.84;101407.94;6211943;23;20078;-84
2021/10/04 11:53:19;;;;;;;16.60;2.07;;;;;;;21.12;49.47;101384.38;6213020;23;20505;-86
2021/10/04 11:56:02;;;;;;;8.32;1.65;;;;;;;21.33;50.74;101411.63;6211308;23;20017;-83
2021/10/04 11:58:30;;;;;;;11.77;2.28;;;;;;;20.61;52.55;101398.56;6232569;23;20012;-84
2021/10/04 12:00:56;;;;;;;10.25;2.22;;;;;;;20.53;53.03;101412.06;6239020;23;20008;-82
2021/10/04 12:04:15;;;;;;;7.10;1.75;;;;;;;21.05;52.25;101413.03;6238375;23;20355;-83
2021/10/04 12:07:04;;;;;;;12.55;1.48;;;;;;;20.80;51.20;101399.19;6246539;23;20019;-79
2021/10/04 12:09:37;;;;;;;6.35;1.95;;;;;;;19.96;54.52;101398.66;6246110;23;20027;-83
2021/10/04 12:12:04;;;;;;;7.38;1.80;;;;;;;19.50;56.71;101425.00;6244070;23;20036;-84
2021/10/04 12:14:30;;;;;;;12.70;2.08;;;;;;;19.11;57.79;101418.28;6218571;23;20004;-79
2021/10/04 12:17:03;;;;;;;10.93;2.00;;;;;;;19.42;56.87;101408.19;6243244;23;20008;-84
2021/10/04 12:19:29;;;;;;;13.82;2.10;;;;;;;20.00;55.35;101400.38;6244669;23;20500;-81
2021/10/04 12:22:18;;;;;;;7.90;1.70;;;;;;;19.52;55.93;101404.50;6244944;23;20031;-83
2021/10/04 12:24:43;;;;;;;9.20;1.92;;;;;;;18.70;57.62;101396.41;6216779;23;20011;-83
2021/10/04 12:27:13;;;;;;;7.40;1.67;;;;;;;18.33;59.42;101408.22;6243432;23;20008;-85
2021/10/04 12:29:47;;;;;;;10.13;1.75;;;;;;;18.03;61.35;101410.16;6243797;23;20078;-83
2021/10/04 12:32:37;;;;;;;9.00;1.70;;;;;;;17.56;60.56;101405.91;6244496;23;20024;-81
2021/10/04 12:35:08;;;;;;;7.55;1.45;;;;;;;18.12;59.87;101403.94;6244489;23;20079;-85
2021/10/04 12:38:16;;;;;;;6.50;1.40;;;;;;;18.73;58.23;101401.69;6244517;23;20004;-83
2021/10/04 12:40:44;;;;;;;11.13;1.33;;;;;;;19.01;56.91;101396.16;6246493;23;20000;-81
2021/10/04 12:43:32;;;;;;;8.68;1.30;;;;;;;19.16;56.01;101390.66;6248177;23;20000;-81
2021/10/04 12:46:19;;;;;;;6.22;1.02;;;;;;;18.66;57.23;101384.00;6246315;23;20012;-86
2021/10/04 12:48:47;;;;;;;14.52;2.03;;;;;;;18.41;57.73;101388.63;6246633;23;20015;-82
2021/10/04 12:51:42;;;;;;;7.47;1.27;;;;;;;17.92;58.48;101401.38;6247007;23;20023;-83
2021/10/04 12:54:08;;;;;;;8.57;1.33;;;;;;;17.52;60.57;101391.72;6246926;23;20010;-80
2021/10/04 12:56:35;;;;;;;9.38;2.00;;;;;;;17.52;61.08;101405.00;6246997;23;20012;-83
2021/10/04 12:59:05;;;;;;;6.32;2.10;;;;;;;17.51;61.39;101411.25;6219189;23;20020;-79
2021/10/04 13:01:52;;;;;;;11.77;1.75;;;;;;;17.61;61.57;101414.75;6242610;23;20567;-83
2021/10/04 13:04:38;;;;;;;5.53;1.40;;;;;;;17.35;61.33;101412.19;6247052;23;20015;-86
2021/10/04 13:07:05;;;;;;;6.55;1.30;;;;;;;17.26;61.63;101406.88;6218243;23;20023;-79
2021/10/04 13:09:51;;;;;;;10.98;1.63;;;;;;;17.46;62.91;101428.13;6246309;23;20011;-83
2021/10/04 13:12:18;;;;;;;13.65;1.98;;;;;;;17.74;61.14;101414.72;6246338;23;20035;-78
2021/10/04 13:14:46;;;;;;;6.38;1.20;;;;;;;17.51;61.42;101415.66;6247205;23;20012;-82
2021/10/04 13:17:12;;;;;;;8.20;1.38;;;;;;;17.64;60.58;101405.88;6247033;23;20022;-81
2021/10/04 13:19:38;;;;;;;6.75;1.17;;;;;;;18.09;58.95;101403.91;6245818;23;20439;-84
2021/10/04 13:22:04;;;;;;;8.13;1.30;;;;;;;17.78;59.96;101414.69;6246166;23;20027;-81
2021/10/04 13:24:50;;;;;;;9.50;2.10;;;;;;;18.22;59.19;101414.50;6245362;23;20502;-81
2021/10/04 13:27:36;;;;;;;8.27;1.20;;;;;;;19.00;57.34;101413.06;6245651;23;20445;-83
2021/10/04 13:30:01;;;;;;;9.65;1.45;;;;;;;19.59;56.36;101402.66;6245508;23;20008;-83
2021/10/04 13:32:26;;;;;;;5.68;1.38;;;;;;;20.11;53.67;101387.75;6246099;23;20318;-82
2021/10/04 13:34:54;;;;;;;7.72;1.38;;;;;;;20.51;51.37;101379.13;6245445;23;20076;-82
2021/10/04 13:37:19;;;;;;;7.53;1.17;;;;;;;20.58;50.54;101365.66;6245430;23;20007;-78
2021/10/04 13:39:45;;;;;;;8.15;1.30;;;;;;;19.66;52.59;101379.44;6245904;23;20158;-79
2021/10/04 13:42:10;;;;;;;10.57;2.22;;;;;;;18.54;55.84;101391.19;6246803;23;20477;-82
2021/10/04 13:44:36;;;;;;;8.95;1.33;;;;;;;18.64;56.53;101400.00;6245619;23;20516;-78
2021/10/04 13:47:02;;;;;;;4.78;1.50;;;;;;;18.80;57.42;101389.19;6246556;23;20008;-80
2021/10/04 13:49:28;;;;;;;8.80;1.38;;;;;;;19.45;54.06;101393.91;6246371;23;20012;-85
2021/10/04 13:51:58;;;;;;;5.18;1.30;;;;;;;19.50;55.00;101392.09;6246934;23;20727;-88
2021/10/04 13:54:23;;;;;;;4.82;1.13;;;;;;;19.74;54.83;101404.25;6245671;23;20347;-80
2021/10/04 13:56:49;;;;;;;6.45;1.30;;;;;;;19.47;54.68;101390.34;6245967;23;20004;-81
2021/10/04 13:59:15;;;;;;;6.05;0.93;;;;;;;18.82;56.41;101382.97;6245753;23;20528;-87
2021/10/04 14:01:40;;;;;;;6.72;1.20;;;;;;;17.99;58.36;101394.22;6215444;23;20462;-84
2021/10/04 14:04:06;;;;;;;5.50;1.25;;;;;;;17.55;60.97;101405.91;6246588;23;20434;-86
2021/10/04 14:06:51;;;;;;;8.43;1.40;;;;;;;17.85;60.52;101411.13;6245487;23;20083;-84
2021/10/04 14:09:17;;;;;;;11.43;1.40;;;;;;;18.02;59.41;101407.53;6245619;23;20027;-82
2021/10/04 14:11:42;;;;;;;6.05;1.40;;;;;;;17.74;62.14;101417.38;6245756;23;20000;-80
2021/10/04 14:14:10;;;;;;;7.88;1.45;;;;;;;17.61;61.86;101421.88;6245464;23;20012;-82
2021/10/04 14:16:36;;;;;;;8.88;1.52;;;;;;;17.25;62.23;101418.41;6218968;23;20016;-79
2021/10/04 14:19:01;;;;;;;7.40;1.17;;;;;;;17.18;62.96;101417.53;6245139;23;20007;-80
2021/10/04 14:21:27;;;;;;;11.98;1.50;;;;;;;17.07;62.97;101409.56;6245562;23;20413;-82
2021/10/04 14:23:52;;;;;;;4.10;1.23;;;;;;;17.30;62.99;101411.31;6246025;23;20335;-81
2021/10/04 14:26:18;;;;;;;8.75;1.50;;;;;;;17.51;62.26;101413.91;6246465;23;20019;-79
2021/10/04 14:29:03;;;;;;;10.32;1.48;;;;;;;17.35;64.22;101422.84;6219778;23;20411;-83
2021/10/04 14:31:31;;;;;;;11.02;1.58;;;;;;;17.17;64.03;101421.97;6246811;23;20000;-80
2021/10/04 14:34:16;;;;;;;10.02;1.45;;;;;;;17.01;64.60;101417.53;6246326;23;20028;-85
2021/10/04 14:37:02;;;;;;;11.10;1.77;;;;;;;16.86;66.14;101424.63;6245649;23;20070;-78
2021/10/04 14:39:28;;;;;;;9.45;1.45;;;;;;;16.68;66.92;101425.50;6246828;23;20033;-87
2021/10/04 14:41:54;;;;;;;6.25;1.27;;;;;;;16.69;66.23;101416.63;6245100;23;19996;-87
2021/10/04 14:44:39;;;;;;;5.88;1.33;;;;;;;16.76;65.71;101420.19;6246297;23;20028;-84
2021/10/04 14:47:05;;;;;;;4.80;1.23;;;;;;;16.73;64.81;101409.56;6245630;23;20008;-84
2021/10/04 14:49:30;;;;;;;12.95;1.30;;;;;;;16.71;65.03;101408.66;6246116;23;20000;-82
2021/10/04 14:51:55;;;;;;;7.00;1.40;;;;;;;16.59;65.93;101413.97;6244695;23;20008;-79
2021/10/04 14:54:21;;;;;;;5.95;1.08;;;;;;;16.49;65.67;101415.72;6245542;23;20004;-83
2021/10/04 14:56:47;;;;;;;9.18;1.08;;;;;;;16.59;65.77;101406.00;6242423;23;20091;-81
2021/10/04 14:59:13;;;;;;;4.63;1.23;;;;;;;16.68;65.76;101408.66;6244149;23;20044;-81
2021/10/04 15:01:59;;;;;;;6.32;1.33;;;;;;;16.80;65.65;101405.13;6236059;23;20004;-76
2021/10/04 15:04:44;;;;;;;11.50;1.40;;;;;;;16.76;66.18;101393.59;6242150;23;20058;-78
2021/10/04 15:07:09;;;;;;;10.15;1.58;;;;;;;16.62;66.39;101393.59;6243592;23;20008;-79
2021/10/04 15:09:35;;;;;;;13.43;3.05;;;;;;;16.44;67.53;101391.84;6242900;23;20513;-79
2021/10/04 15:12:16;;;;;;;5.22;0.90;;;;;;;16.34;68.67;101390.03;6238797;23;20006;-80
2021/10/04 15:14:42;;;;;;;5.95;1.20;;;;;;;16.35;69.67;101395.34;6242228;23;20305;-80
2021/10/04 15:17:07;;;;;;;6.40;1.17;;;;;;;16.34;67.76;101390.03;6243255;23;20008;-82
2021/10/04 15:19:33;;;;;;;10.68;1.55;;;;;;;16.28;69.05;101387.38;6243087;23;20028;-89
2021/10/04 15:22:00;;;;;;;9.07;1.83;;;;;;;16.25;68.81;101390.00;6243015;23;20326;-78
2021/10/04 15:24:25;;;;;;;7.65;1.23;;;;;;;16.14;69.38;101398.88;6243480;23;20008;-86
2021/10/04 15:27:11;;;;;;;8.38;1.40;;;;;;;16.15;69.06;101399.75;6242267;23;20423;-78
2021/10/04 15:29:36;;;;;;;9.50;1.35;;;;;;;16.19;68.85;101401.50;6241494;23;20150;-79
2021/10/04 15:32:03;;;;;;;5.68;1.20;;;;;;;16.17;68.61;101409.47;6241645;23;20039;-80
2021/10/04 15:34:28;;;;;;;8.90;1.33;;;;;;;16.15;69.60;101415.66;6240961;23;20403;-86
2021/10/04 15:37:13;;;;;;;9.82;1.25;;;;;;;16.08;69.94;101408.56;6242873;23;20458;-83
2021/10/04 15:39:39;;;;;;;5.15;1.10;;;;;;;16.02;69.40;101417.41;6241427;23;20012;-81
2021/10/04 15:42:05;;;;;;;10.35;1.38;;;;;;;15.96;70.65;101425.34;6241774;23;20074;-77
2021/10/04 15:44:31;;;;;;;10.45;1.58;;;;;;;15.91;71.10;101424.44;6213947;23;20015;-79
2021/10/04 15:46:56;;;;;;;5.57;1.40;;;;;;;15.87;71.31;101420.00;6243063;23;20016;-80
2021/10/04 15:49:22;;;;;;;4.05;1.10;;;;;;;15.80;72.76;101425.28;6243717;23;20280;-82
2021/10/04 15:52:07;;;;;;;12.18;1.60;;;;;;;15.50;76.25;101437.50;6245293;23;20008;-83
2021/10/04 15:54:32;;;;;;;9.27;1.83;;;;;;;15.10;81.47;101447.81;6243923;23;20083;-82
2021/10/04 15:56:58;;;;;;;8.73;1.58;;;;;;;14.90;81.43;101438.84;6245579;23;20079;-82
2021/10/04 15:59:44;;;;;;;7.22;1.40;;;;;;;14.77;83.34;101441.38;6244238;23;20016;-83
2021/10/04 16:02:35;;;;;;;8.90;1.70;;;;;;;14.70;81.19;101431.59;6239718;23;20083;-84
2021/10/04 16:05:17;;;;;;;4.63;1.15;;;;;;;14.70;80.63;101436.88;6217312;23;20008;-81
2021/10/04 16:07:43;;;;;;;5.55;1.40;;;;;;;14.69;80.50;101435.13;6240676;23;20008;-77
2021/10/04 16:10:11;;;;;;;8.18;1.80;;;;;;;14.70;81.01;101436.88;6245569;23;19996;-87
2021/10/04 16:12:37;;;;;;;7.82;1.38;;;;;;;14.72;80.73;101437.81;6246384;23;20516;-85
2021/10/04 16:15:23;;;;;;;6.50;1.23;;;;;;;14.78;80.71;101432.53;6245692;23;20079;-80
2021/10/04 16:17:51;;;;;;;7.03;1.45;;;;;;;14.86;78.94;101426.44;6226941;23;20054;-83